sensor_id;sensor_type;location;lat;lon;timestamp;pressure;altitude;pressure_sealevel;temperature;humidity
18819;BME280;9537;45.594;9.294;2022-12-05T00:00:04;99791.84;;;9.05;100.00
18819;BME280;9537;45.594;9.294;2022-12-05T00:01:15;99785.09;;;9.02;100.00
18819;BME280;9537;45.594;9.294;2022-12-05T00:02:17;99792.81;;;9.04;100.00
18819;BME280;9537;45.594;9.294;2022-12-05T00:03:18;99787.41;;;9.06;100.00
18819;BME280;9537;45.594;9.294;2022-12-05T00:04:21;99789.22;;;9.05;100.00
18819;BME280;9537;45.594;9.294;2022-12-05T00:05:22;99787.53;;;9.04;100.00
18819;BME280;9537;45.594;9.294;2022-12-05T00:06:26;99780.50;;;9.05;100.00
18819;BME280;9537;45.594;9.294;2022-12-05T00:07:27;99789.22;;;9.05;100.00
18819;BME280;9537;45.594;9.294;2022-12-05T00:08:29;99778.81;;;9.03;100.00
18819;BME280;9537;45.594;9.294;2022-12-05T00:09:30;99783.94;;;9.05;100.00
18819;BME280;9537;45.594;9.294;2022-12-05T00:10:34;99786.72;;;9.03;100.00
18819;BME280;9537;45.594;9.294;2022-12-05T00:11:38;99792.66;;;9.06;100.00
18819;BME280;9537;45.594;9.294;2022-12-05T00:12:41;99785.75;;;9.05;100.00
18819;BME280;9537;45.594;9.294;2022-12-05T00:13:43;99785.91;;;9.03;100.00
18819;BME280;9537;45.594;9.294;2022-12-05T00:14:45;99782.13;;;9.06;100.00
18819;BME280;9537;45.594;9.294;2022-12-05T00:15:46;99785.91;;;9.03;100.00
18819;BME280;9537;45.594;9.294;2022-12-05T00:16:49;99777.00;;;9.04;100.00
18819;BME280;9537;45.594;9.294;2022-12-05T00:17:50;99779.81;;;9.02;100.00
18819;BME280;9537;45.594;9.294;2022-12-05T00:18:52;99780.50;;;9.05;100.00
18819;BME280;9537;45.594;9.294;2022-12-05T00:19:53;99777.84;;;9.05;100.00
18819;BME280;9537;45.594;9.294;2022-12-05T00:20:55;99780.50;;;9.05;100.00
18819;BME280;9537;45.594;9.294;2022-12-05T00:21:56;99782.13;;;9.06;100.00
18819;BME280;9537;45.594;9.294;2022-12-05T00:22:59;99773.09;;;9.08;100.00
18819;BME280;9537;45.594;9.294;2022-12-05T00:24:01;99771.44;;;9.07;100.00
18819;BME280;9537;45.594;9.294;2022-12-05T00:25:04;99773.22;;;9.07;100.00
18819;BME280;9537;45.594;9.294;2022-12-05T00:26:05;99758.56;;;9.04;100.00
18819;BME280;9537;45.594;9.294;2022-12-05T00:27:08;99759.41;;;9.05;100.00
18819;BME280;9537;45.594;9.294;2022-12-05T00:28:08;99758.41;;;9.06;100.00
18819;BME280;9537;45.594;9.294;2022-12-05T00:29:11;99769.63;;;9.08;100.00
18819;BME280;9537;45.594;9.294;2022-12-05T00:30:12;99762.56;;;9.08;100.00
18819;BME280;9537;45.594;9.294;2022-12-05T00:31:16;99759.09;;;9.08;100.00
18819;BME280;9537;45.594;9.294;2022-12-05T00:32:18;99766.81;;;9.09;100.00
18819;BME280;9537;45.594;9.294;2022-12-05T00:33:20;99771.28;;;9.09;100.00
18819;BME280;9537;45.594;9.294;2022-12-05T00:34:21;99769.13;;;9.12;100.00
18819;BME280;9537;45.594;9.294;2022-12-05T00:35:23;99771.13;;;9.10;100.00
18819;BME280;9537;45.594;9.294;2022-12-05T00:36:26;99776.41;;;9.10;100.00
18819;BME280;9537;45.594;9.294;2022-12-05T00:37:28;99770.28;;;9.10;100.00
18819;BME280;9537;45.594;9.294;2022-12-05T00:38:29;99773.91;;;9.09;100.00
18819;BME280;9537;45.594;9.294;2022-12-05T00:39:31;99766.19;;;9.07;100.00
18819;BME280;9537;45.594;9.294;2022-12-05T00:40:34;99764.38;;;9.08;100.00
18819;BME280;9537;45.594;9.294;2022-12-05T00:41:37;99763.53;;;9.07;100.00
18819;BME280;9537;45.594;9.294;2022-12-05T00:42:38;99767.00;;;9.08;100.00
18819;BME280;9537;45.594;9.294;2022-12-05T00:43:41;99766.00;;;9.09;100.00
18819;BME280;9537;45.594;9.294;2022-12-05T00:44:42;99773.75;;;9.10;100.00
18819;BME280;9537;45.594;9.294;2022-12-05T00:45:44;99773.09;;;9.08;100.00
18819;BME280;9537;45.594;9.294;2022-12-05T00:46:45;99775.53;;;9.10;100.00
18819;BME280;9537;45.594;9.294;2022-12-05T00:47:49;99776.41;;;9.10;100.00
18819;BME280;9537;45.594;9.294;2022-12-05T00:48:51;99780.81;;;9.10;100.00
18819;BME280;9537;45.594;9.294;2022-12-05T00:49:54;99778.03;;;9.11;100.00
18819;BME280;9537;45.594;9.294;2022-12-05T00:50:59;99778.19;;;9.10;100.00
18819;BME280;9537;45.594;9.294;2022-12-05T00:52:01;99782.13;;;9.06;100.00
18819;BME280;9537;45.594;9.294;2022-12-05T00:53:02;99777.00;;;9.04;100.00
18819;BME280;9537;45.594;9.294;2022-12-05T00:54:07;99775.22;;;9.05;100.00
18819;BME280;9537;45.594;9.294;2022-12-05T00:55:08;99779.81;;;9.02;100.00
18819;BME280;9537;45.594;9.294;2022-12-05T00:56:12;99774.38;;;9.04;100.00
18819;BME280;9537;45.594;9.294;2022-12-05T00:57:14;99772.59;;;9.05;100.00
18819;BME280;9537;45.594;9.294;2022-12-05T00:58:16;99771.75;;;9.04;100.00
18819;BME280;9537;45.594;9.294;2022-12-05T00:59:18;99768.28;;;9.03;100.00
18819;BME280;9537;45.594;9.294;2022-12-05T01:00:20;99769.09;;;9.04;100.00
18819;BME280;9537;45.594;9.294;2022-12-05T01:01:23;99771.75;;;9.04;100.00
18819;BME280;9537;45.594;9.294;2022-12-05T01:02:25;99762.88;;;9.05;100.00
18819;BME280;9537;45.594;9.294;2022-12-05T01:03:27;99764.50;;;9.06;100.00
18819;BME280;9537;45.594;9.294;2022-12-05T01:04:29;99762.06;;;9.05;100.00
18819;BME280;9537;45.594;9.294;2022-12-05T01:05:32;99767.00;;;9.08;100.00
18819;BME280;9537;45.594;9.294;2022-12-05T01:06:35;99763.84;;;9.04;100.00
18819;BME280;9537;45.594;9.294;2022-12-05T01:07:36;99767.47;;;9.03;100.00
18819;BME280;9537;45.594;9.294;2022-12-05T01:08:38;99763.84;;;9.04;100.00
18819;BME280;9537;45.594;9.294;2022-12-05T01:09:39;99766.19;;;9.07;100.00
18819;BME280;9537;45.594;9.294;2022-12-05T01:10:41;99769.78;;;9.06;100.00
18819;BME280;9537;45.594;9.294;2022-12-05T01:11:51;99773.22;;;9.07;100.00
18819;BME280;9537;45.594;9.294;2022-12-05T01:12:53;99768.50;;;9.10;100.00
18819;BME280;9537;45.594;9.294;2022-12-05T01:13:55;99775.72;;;9.08;100.00
18819;BME280;9537;45.594;9.294;2022-12-05T01:14:57;99772.91;;;9.10;100.00
18819;BME280;9537;45.594;9.294;2022-12-05T01:15:58;99772.91;;;9.10;100.00
18819;BME280;9537;45.594;9.294;2022-12-05T01:17:00;99772.09;;;9.09;100.00
18819;BME280;9537;45.594;9.294;2022-12-05T01:18:02;99767.97;;;9.07;100.00
18819;BME280;9537;45.594;9.294;2022-12-05T01:19:07;99775.88;;;9.07;100.00
18819;BME280;9537;45.594;9.294;2022-12-05T01:20:10;99771.59;;;9.06;100.00
18819;BME280;9537;45.594;9.294;2022-12-05T01:21:11;99774.22;;;9.06;100.00
18819;BME280;9537;45.594;9.294;2022-12-05T01:22:13;99774.38;;;9.04;100.00
18819;BME280;9537;45.594;9.294;2022-12-05T01:23:15;99774.38;;;9.04;100.00
18819;BME280;9537;45.594;9.294;2022-12-05T01:24:17;99774.22;;;9.06;100.00
18819;BME280;9537;45.594;9.294;2022-12-05T01:25:19;99768.97;;;9.06;100.00
18819;BME280;9537;45.594;9.294;2022-12-05T01:26:21;99772.41;;;9.06;100.00
18819;BME280;9537;45.594;9.294;2022-12-05T01:27:23;99763.69;;;9.06;100.00
18819;BME280;9537;45.594;9.294;2022-12-05T01:28:24;99767.00;;;9.08;100.00
18819;BME280;9537;45.594;9.294;2022-12-05T01:29:27;99761.06;;;9.06;100.00
18819;BME280;9537;45.594;9.294;2022-12-05T01:30:29;99759.75;;;9.10;100.00
18819;BME280;9537;45.594;9.294;2022-12-05T01:31:33;99759.91;;;9.08;100.00
18819;BME280;9537;45.594;9.294;2022-12-05T01:32:35;99753.00;;;9.07;100.00
18819;BME280;9537;45.594;9.294;2022-12-05T01:33:36;99752.16;;;9.07;100.00
18819;BME280;9537;45.594;9.294;2022-12-05T01:34:40;99748.88;;;9.05;100.00
18819;BME280;9537;45.594;9.294;2022-12-05T01:35:41;99754.47;;;9.10;100.00
18819;BME280;9537;45.594;9.294;2022-12-05T01:36:44;99749.88;;;9.12;100.00
18819;BME280;9537;45.594;9.294;2022-12-05T01:37:45;99750.69;;;9.12;100.00
18819;BME280;9537;45.594;9.294;2022-12-05T01:38:48;99749.38;;;9.08;100.00
18819;BME280;9537;45.594;9.294;2022-12-05T01:39:49;99748.38;;;9.09;100.00
18819;BME280;9537;45.594;9.294;2022-12-05T01:40:58;99752.50;;;9.12;100.00
18819;BME280;9537;45.594;9.294;2022-12-05T01:42:00;99752.34;;;9.13;100.00
18819;BME280;9537;45.594;9.294;2022-12-05T01:43:05;99747.41;;;9.10;100.00
18819;BME280;9537;45.594;9.294;2022-12-05T01:45:45;99751.19;;;9.08;100.00
18819;BME280;9537;45.594;9.294;2022-12-05T01:46:48;99755.78;;;9.06;100.00
18819;BME280;9537;45.594;9.294;2022-12-05T01:47:50;99752.81;;;9.09;100.00
18819;BME280;9537;45.594;9.294;2022-12-05T01:48:54;99755.66;;;9.07;100.00
18819;BME280;9537;45.594;9.294;2022-12-05T01:50:00;99750.66;;;9.04;100.00
18819;BME280;9537;45.594;9.294;2022-12-05T01:51:02;99755.94;;;9.04;100.00
18819;BME280;9537;45.594;9.294;2022-12-05T01:52:06;99755.94;;;9.04;100.00
18819;BME280;9537;45.594;9.294;2022-12-05T01:53:09;99752.34;;;9.05;100.00
18819;BME280;9537;45.594;9.294;2022-12-05T01:54:12;99755.13;;;9.12;100.00
18819;BME280;9537;45.594;9.294;2022-12-05T01:55:15;99756.28;;;9.09;100.00
18819;BME280;9537;45.594;9.294;2022-12-05T01:56:18;99758.91;;;9.09;100.00
18819;BME280;9537;45.594;9.294;2022-12-05T01:57:20;99766.00;;;9.09;100.00
18819;BME280;9537;45.594;9.294;2022-12-05T01:58:27;99761.06;;;9.06;100.00
18819;BME280;9537;45.594;9.294;2022-12-05T01:59:32;99756.94;;;9.03;100.00
18819;BME280;9537;45.594;9.294;2022-12-05T02:00:35;99763.00;;;9.03;100.00
18819;BME280;9537;45.594;9.294;2022-12-05T02:01:36;99760.06;;;9.07;100.00
18819;BME280;9537;45.594;9.294;2022-12-05T02:02:41;99752.34;;;9.05;100.00
18819;BME280;9537;45.594;9.294;2022-12-05T02:03:43;99763.69;;;9.06;100.00
18819;BME280;9537;45.594;9.294;2022-12-05T02:04:50;99761.19;;;9.04;100.00
18819;BME280;9537;45.594;9.294;2022-12-05T02:05:59;99757.59;;;9.05;100.00
18819;BME280;9537;45.594;9.294;2022-12-05T02:07:01;99759.41;;;9.05;100.00
18819;BME280;9537;45.594;9.294;2022-12-05T02:08:04;99762.88;;;9.05;100.00
18819;BME280;9537;45.594;9.294;2022-12-05T02:09:07;99757.59;;;9.05;100.00
18819;BME280;9537;45.594;9.294;2022-12-05T02:10:09;99759.41;;;9.05;100.00
18819;BME280;9537;45.594;9.294;2022-12-05T02:11:11;99762.06;;;9.05;100.00
18819;BME280;9537;45.594;9.294;2022-12-05T02:12:12;99757.75;;;9.03;100.00
18819;BME280;9537;45.594;9.294;2022-12-05T02:13:35;99761.72;;;9.08;100.00
18819;BME280;9537;45.594;9.294;2022-12-05T02:14:50;99768.97;;;9.06;100.00
18819;BME280;9537;45.594;9.294;2022-12-05T02:16:00;99770.91;;;9.03;100.00
18819;BME280;9537;45.594;9.294;2022-12-05T02:17:08;99767.31;;;9.05;100.00
18819;BME280;9537;45.594;9.294;2022-12-05T02:18:23;99770.91;;;9.03;100.00
18819;BME280;9537;45.594;9.294;2022-12-05T02:19:46;99776.03;;;9.05;100.00
18819;BME280;9537;45.594;9.294;2022-12-05T02:22:43;99769.97;;;9.05;100.00
18819;BME280;9537;45.594;9.294;2022-12-05T02:24:06;99769.09;;;9.04;100.00
18819;BME280;9537;45.594;9.294;2022-12-05T02:26:58;99763.19;;;9.02;100.00
18819;BME280;9537;45.594;9.294;2022-12-05T02:28:20;99760.38;;;9.03;100.00
18819;BME280;9537;45.594;9.294;2022-12-05T02:29:53;99755.28;;;9.02;100.00
18819;BME280;9537;45.594;9.294;2022-12-05T02:31:04;99753.78;;;8.99;100.00
18819;BME280;9537;45.594;9.294;2022-12-05T02:32:10;99760.72;;;9.00;100.00
18819;BME280;9537;45.594;9.294;2022-12-05T02:33:20;99751.84;;;9.01;100.00
18819;BME280;9537;45.594;9.294;2022-12-05T02:34:26;99762.38;;;9.01;100.00
18819;BME280;9537;45.594;9.294;2022-12-05T02:35:39;99750.16;;;9.00;100.00
18819;BME280;9537;45.594;9.294;2022-12-05T02:36:44;99757.41;;;8.98;100.00
18819;BME280;9537;45.594;9.294;2022-12-05T02:37:54;99746.56;;;9.01;100.00
18819;BME280;9537;45.594;9.294;2022-12-05T02:38:59;99745.72;;;9.01;100.00
18819;BME280;9537;45.594;9.294;2022-12-05T02:40:09;99750.84;;;9.02;100.00
18819;BME280;9537;45.594;9.294;2022-12-05T02:41:18;99748.19;;;9.02;100.00
18819;BME280;9537;45.594;9.294;2022-12-05T02:42:28;99741.28;;;9.01;100.00
18819;BME280;9537;45.594;9.294;2022-12-05T02:43:36;99740.13;;;9.04;100.00
18819;BME280;9537;45.594;9.294;2022-12-05T02:44:44;99742.94;;;9.02;100.00
18819;BME280;9537;45.594;9.294;2022-12-05T02:45:51;99756.09;;;9.02;100.00
18819;BME280;9537;45.594;9.294;2022-12-05T02:46:55;99741.13;;;9.03;100.00
18819;BME280;9537;45.594;9.294;2022-12-05T02:47:58;99743.59;;;9.05;100.00
18819;BME280;9537;45.594;9.294;2022-12-05T02:49:03;99739.31;;;9.03;100.00
18819;BME280;9537;45.594;9.294;2022-12-05T02:50:08;99748.88;;;9.05;100.00
18819;BME280;9537;45.594;9.294;2022-12-05T02:51:16;99746.25;;;9.05;100.00
18819;BME280;9537;45.594;9.294;2022-12-05T02:52:18;99747.88;;;9.06;100.00
18819;BME280;9537;45.594;9.294;2022-12-05T02:53:21;99746.88;;;9.07;100.00
18819;BME280;9537;45.594;9.294;2022-12-05T02:54:25;99752.16;;;9.07;100.00
18819;BME280;9537;45.594;9.294;2022-12-05T02:55:30;99744.25;;;9.07;100.00
18819;BME280;9537;45.594;9.294;2022-12-05T02:56:33;99748.88;;;9.05;100.00
18819;BME280;9537;45.594;9.294;2022-12-05T02:57:37;99751.50;;;9.05;100.00
18819;BME280;9537;45.594;9.294;2022-12-05T02:58:43;99744.44;;;9.05;100.00
18819;BME280;9537;45.594;9.294;2022-12-05T02:59:47;99751.34;;;9.06;100.00
18819;BME280;9537;45.594;9.294;2022-12-05T03:00:55;99751.34;;;9.06;100.00
18819;BME280;9537;45.594;9.294;2022-12-05T03:01:58;99754.78;;;9.07;100.00
18819;BME280;9537;45.594;9.294;2022-12-05T03:02:59;99760.06;;;9.07;100.00
18819;BME280;9537;45.594;9.294;2022-12-05T03:04:03;99753.81;;;9.08;100.00
18819;BME280;9537;45.594;9.294;2022-12-05T03:05:16;99756.13;;;9.11;100.00
18819;BME280;9537;45.594;9.294;2022-12-05T03:06:24;99763.38;;;9.09;100.00
18819;BME280;9537;45.594;9.294;2022-12-05T03:07:29;99762.56;;;9.08;100.00
18819;BME280;9537;45.594;9.294;2022-12-05T03:08:36;99768.81;;;9.07;100.00
18819;BME280;9537;45.594;9.294;2022-12-05T03:09:42;99759.25;;;9.06;100.00
18819;BME280;9537;45.594;9.294;2022-12-05T03:10:48;99765.34;;;9.07;100.00
18819;BME280;9537;45.594;9.294;2022-12-05T03:11:54;99767.81;;;9.08;100.00
18819;BME280;9537;45.594;9.294;2022-12-05T03:13:03;99766.00;;;9.09;100.00
18819;BME280;9537;45.594;9.294;2022-12-05T03:14:06;99774.91;;;9.08;100.00
18819;BME280;9537;45.594;9.294;2022-12-05T03:15:17;99768.81;;;9.07;100.00
18819;BME280;9537;45.594;9.294;2022-12-05T03:16:25;99765.19;;;9.08;100.00
18819;BME280;9537;45.594;9.294;2022-12-05T03:17:34;99761.72;;;9.08;100.00
18819;BME280;9537;45.594;9.294;2022-12-05T03:18:38;99764.38;;;9.08;100.00
18819;BME280;9537;45.594;9.294;2022-12-05T03:19:47;99761.56;;;9.09;100.00
18819;BME280;9537;45.594;9.294;2022-12-05T03:20:53;99763.38;;;9.09;100.00
18819;BME280;9537;45.594;9.294;2022-12-05T03:22:01;99766.81;;;9.09;100.00
18819;BME280;9537;45.594;9.294;2022-12-05T03:23:08;99762.38;;;9.10;100.00
18819;BME280;9537;45.594;9.294;2022-12-05T03:24:13;99761.72;;;9.08;100.00
18819;BME280;9537;45.594;9.294;2022-12-05T03:25:17;99764.19;;;9.09;100.00
18819;BME280;9537;45.594;9.294;2022-12-05T03:26:31;99764.38;;;9.08;100.00
18819;BME280;9537;45.594;9.294;2022-12-05T03:27:43;99761.72;;;9.08;100.00
18819;BME280;9537;45.594;9.294;2022-12-05T03:28:53;99760.06;;;9.07;100.00
18819;BME280;9537;45.594;9.294;2022-12-05T03:30:01;99755.66;;;9.07;100.00
18819;BME280;9537;45.594;9.294;2022-12-05T03:31:08;99760.06;;;9.07;100.00
18819;BME280;9537;45.594;9.294;2022-12-05T03:32:18;99763.53;;;9.07;100.00
18819;BME280;9537;45.594;9.294;2022-12-05T03:33:25;99765.34;;;9.07;100.00
18819;BME280;9537;45.594;9.294;2022-12-05T03:34:39;99770.59;;;9.07;100.00
18819;BME280;9537;45.594;9.294;2022-12-05T03:35:44;99762.69;;;9.07;100.00
18819;BME280;9537;45.594;9.294;2022-12-05T03:36:50;99763.38;;;9.09;100.00
18819;BME280;9537;45.594;9.294;2022-12-05T03:37:53;99758.78;;;9.11;100.00
18819;BME280;9537;45.594;9.294;2022-12-05T03:39:02;99763.38;;;9.09;100.00
18819;BME280;9537;45.594;9.294;2022-12-05T03:40:10;99759.09;;;9.08;100.00
18819;BME280;9537;45.594;9.294;2022-12-05T03:41:18;99762.56;;;9.08;100.00
18819;BME280;9537;45.594;9.294;2022-12-05T03:42:30;99757.28;;;9.08;100.00
18819;BME280;9537;45.594;9.294;2022-12-05T03:43:36;99752.00;;;9.08;100.00
18819;BME280;9537;45.594;9.294;2022-12-05T03:44:46;99753.66;;;9.09;100.00
18819;BME280;9537;45.594;9.294;2022-12-05T03:45:54;99750.03;;;9.10;100.00
18819;BME280;9537;45.594;9.294;2022-12-05T03:47:02;99753.66;;;9.09;100.00
18819;BME280;9537;45.594;9.294;2022-12-05T03:48:12;99756.28;;;9.09;100.00
18819;BME280;9537;45.594;9.294;2022-12-05T03:49:19;99756.28;;;9.09;100.00
18819;BME280;9537;45.594;9.294;2022-12-05T03:50:24;99753.50;;;9.11;100.00
18819;BME280;9537;45.594;9.294;2022-12-05T03:51:32;99752.50;;;9.12;100.00
18819;BME280;9537;45.594;9.294;2022-12-05T03:52:38;99755.31;;;9.10;100.00
18819;BME280;9537;45.594;9.294;2022-12-05T03:53:45;99751.19;;;9.08;100.00
18819;BME280;9537;45.594;9.294;2022-12-05T03:54:50;99744.09;;;9.08;100.00
18819;BME280;9537;45.594;9.294;2022-12-05T03:55:59;99749.38;;;9.08;100.00
18819;BME280;9537;45.594;9.294;2022-12-05T03:57:05;99745.75;;;9.09;100.00
18819;BME280;9537;45.594;9.294;2022-12-05T03:58:11;99748.22;;;9.11;100.00
18819;BME280;9537;45.594;9.294;2022-12-05T03:59:18;99743.59;;;9.13;100.00
18819;BME280;9537;45.594;9.294;2022-12-05T04:00:25;99748.22;;;9.11;100.00
18819;BME280;9537;45.594;9.294;2022-12-05T04:01:28;99746.75;;;9.08;100.00
18819;BME280;9537;45.594;9.294;2022-12-05T04:02:41;99747.56;;;9.09;100.00
18819;BME280;9537;45.594;9.294;2022-12-05T04:03:49;99742.28;;;9.09;100.00
18819;BME280;9537;45.594;9.294;2022-12-05T04:04:57;99744.09;;;9.08;100.00
18819;BME280;9537;45.594;9.294;2022-12-05T04:06:02;99746.88;;;9.07;100.00
18819;BME280;9537;45.594;9.294;2022-12-05T04:07:07;99743.09;;;9.09;100.00
18819;BME280;9537;45.594;9.294;2022-12-05T04:08:14;99743.78;;;9.11;100.00
18819;BME280;9537;45.594;9.294;2022-12-05T04:09:20;99747.56;;;9.09;100.00
18819;BME280;9537;45.594;9.294;2022-12-05T04:10:27;99750.38;;;9.07;100.00
18819;BME280;9537;45.594;9.294;2022-12-05T04:11:32;99749.53;;;9.07;100.00
18819;BME280;9537;45.594;9.294;2022-12-05T04:12:35;99747.75;;;9.07;100.00
18819;BME280;9537;45.594;9.294;2022-12-05T04:13:42;99744.09;;;9.08;100.00
18819;BME280;9537;45.594;9.294;2022-12-05T04:14:46;99740.78;;;9.06;100.00
18819;BME280;9537;45.594;9.294;2022-12-05T04:15:56;99747.06;;;9.05;100.00
18819;BME280;9537;45.594;9.294;2022-12-05T04:17:20;99746.88;;;9.07;100.00
18819;BME280;9537;45.594;9.294;2022-12-05T04:18:25;99745.41;;;9.04;100.00
18819;BME280;9537;45.594;9.294;2022-12-05T04:19:36;99747.88;;;9.06;100.00
18819;BME280;9537;45.594;9.294;2022-12-05T04:20:57;99753.50;;;9.11;100.00
18819;BME280;9537;45.594;9.294;2022-12-05T04:22:17;99748.22;;;9.11;100.00
18819;BME280;9537;45.594;9.294;2022-12-05T04:23:19;99753.50;;;9.11;100.00
18819;BME280;9537;45.594;9.294;2022-12-05T04:24:24;99748.56;;;9.08;100.00
18819;BME280;9537;45.594;9.294;2022-12-05T04:25:51;99746.75;;;9.08;100.00
18819;BME280;9537;45.594;9.294;2022-12-05T04:27:16;99745.59;;;9.11;100.00
18819;BME280;9537;45.594;9.294;2022-12-05T04:28:27;99748.38;;;9.09;100.00
18819;BME280;9537;45.594;9.294;2022-12-05T04:29:36;99746.06;;;9.06;100.00
18819;BME280;9537;45.594;9.294;2022-12-05T04:30:46;99755.66;;;9.07;100.00
18819;BME280;9537;45.594;9.294;2022-12-05T04:31:54;99751.19;;;9.08;100.00
18819;BME280;9537;45.594;9.294;2022-12-05T04:33:01;99749.38;;;9.08;100.00
18819;BME280;9537;45.594;9.294;2022-12-05T04:34:07;99752.81;;;9.09;100.00
18819;BME280;9537;45.594;9.294;2022-12-05T04:35:16;99748.56;;;9.08;100.00
18819;BME280;9537;45.594;9.294;2022-12-05T04:36:24;99746.88;;;9.07;100.00
18819;BME280;9537;45.594;9.294;2022-12-05T04:37:30;99744.44;;;9.05;100.00
18819;BME280;9537;45.594;9.294;2022-12-05T04:38:40;99751.34;;;9.06;100.00
18819;BME280;9537;45.594;9.294;2022-12-05T04:39:46;99747.06;;;9.05;100.00
18819;BME280;9537;45.594;9.294;2022-12-05T04:40:53;99741.78;;;9.05;100.00
18819;BME280;9537;45.594;9.294;2022-12-05T04:42:01;99744.56;;;9.03;100.00
18819;BME280;9537;45.594;9.294;2022-12-05T04:43:05;99746.25;;;9.05;100.00
18819;BME280;9537;45.594;9.294;2022-12-05T04:44:10;99750.53;;;9.06;100.00
18819;BME280;9537;45.594;9.294;2022-12-05T04:45:15;99753.28;;;9.04;100.00
18819;BME280;9537;45.594;9.294;2022-12-05T04:46:20;99751.50;;;9.05;100.00
18819;BME280;9537;45.594;9.294;2022-12-05T04:47:26;99751.50;;;9.05;100.00
18819;BME280;9537;45.594;9.294;2022-12-05T04:48:31;99748.69;;;9.06;100.00
18819;BME280;9537;45.594;9.294;2022-12-05T04:49:34;99744.25;;;9.07;100.00
18819;BME280;9537;45.594;9.294;2022-12-05T04:50:38;99752.34;;;9.05;100.00
18819;BME280;9537;45.594;9.294;2022-12-05T04:51:42;99754.97;;;9.05;100.00
18819;BME280;9537;45.594;9.294;2022-12-05T04:52:47;99760.25;;;9.05;100.00
18819;BME280;9537;45.594;9.294;2022-12-05T04:53:53;99753.16;;;9.06;100.00
18819;BME280;9537;45.594;9.294;2022-12-05T04:55:01;99755.66;;;9.07;100.00
18819;BME280;9537;45.594;9.294;2022-12-05T04:56:06;99752.69;;;9.10;100.00
18819;BME280;9537;45.594;9.294;2022-12-05T04:57:14;99758.59;;;9.12;100.00
18819;BME280;9537;45.594;9.294;2022-12-05T04:58:18;99764.84;;;9.11;100.00
18819;BME280;9537;45.594;9.294;2022-12-05T04:59:21;99765.00;;;9.10;100.00
18819;BME280;9537;45.594;9.294;2022-12-05T05:00:22;99763.53;;;9.07;100.00
18819;BME280;9537;45.594;9.294;2022-12-05T05:01:29;99764.19;;;9.09;100.00
18819;BME280;9537;45.594;9.294;2022-12-05T05:02:38;99764.38;;;9.08;100.00
18819;BME280;9537;45.594;9.294;2022-12-05T05:03:44;99758.28;;;9.07;100.00
18819;BME280;9537;45.594;9.294;2022-12-05T05:04:48;99774.09;;;9.07;100.00
18819;BME280;9537;45.594;9.294;2022-12-05T05:05:54;99767.81;;;9.08;100.00
18819;BME280;9537;45.594;9.294;2022-12-05T05:06:56;99768.81;;;9.07;100.00
18819;BME280;9537;45.594;9.294;2022-12-05T05:07:58;99767.81;;;9.08;100.00
18819;BME280;9537;45.594;9.294;2022-12-05T05:08:59;99767.16;;;9.06;100.00
18819;BME280;9537;45.594;9.294;2022-12-05T05:10:01;99768.97;;;9.06;100.00
18819;BME280;9537;45.594;9.294;2022-12-05T05:11:08;99772.28;;;9.08;100.00
18819;BME280;9537;45.594;9.294;2022-12-05T05:12:12;99776.72;;;9.07;100.00
18819;BME280;9537;45.594;9.294;2022-12-05T05:13:13;99769.78;;;9.06;100.00
18819;BME280;9537;45.594;9.294;2022-12-05T05:14:15;99777.53;;;9.08;100.00
18819;BME280;9537;45.594;9.294;2022-12-05T05:15:16;99771.44;;;9.07;100.00
18819;BME280;9537;45.594;9.294;2022-12-05T05:16:19;99776.41;;;9.10;100.00
18819;BME280;9537;45.594;9.294;2022-12-05T05:17:21;99786.09;;;9.10;100.00
18819;BME280;9537;45.594;9.294;2022-12-05T05:18:23;99779.84;;;9.11;100.00
18819;BME280;9537;45.594;9.294;2022-12-05T05:19:24;99783.44;;;9.10;100.00
18819;BME280;9537;45.594;9.294;2022-12-05T05:20:26;99783.44;;;9.10;100.00
18819;BME280;9537;45.594;9.294;2022-12-05T05:21:29;99781.81;;;9.09;100.00
18819;BME280;9537;45.594;9.294;2022-12-05T05:22:32;99783.44;;;9.10;100.00
18819;BME280;9537;45.594;9.294;2022-12-05T05:23:33;99783.44;;;9.10;100.00
18819;BME280;9537;45.594;9.294;2022-12-05T05:24:35;99786.09;;;9.10;100.00
18819;BME280;9537;45.594;9.294;2022-12-05T05:25:36;99787.09;;;9.09;100.00
18819;BME280;9537;45.594;9.294;2022-12-05T05:26:41;99782.81;;;9.08;100.00
18819;BME280;9537;45.594;9.294;2022-12-05T05:27:47;99778.34;;;9.08;100.00
18819;BME280;9537;45.594;9.294;2022-12-05T05:28:49;99781.00;;;9.08;100.00
18819;BME280;9537;45.594;9.294;2022-12-05T05:29:51;99783.63;;;9.08;100.00
18819;BME280;9537;45.594;9.294;2022-12-05T05:30:52;99780.19;;;9.08;100.00
18819;BME280;9537;45.594;9.294;2022-12-05T05:31:54;99784.44;;;9.09;100.00
18819;BME280;9537;45.594;9.294;2022-12-05T05:32:55;99783.63;;;9.08;100.00
18819;BME280;9537;45.594;9.294;2022-12-05T05:33:59;99783.78;;;9.07;100.00
18819;BME280;9537;45.594;9.294;2022-12-05T05:35:00;99781.13;;;9.07;100.00
18819;BME280;9537;45.594;9.294;2022-12-05T05:36:04;99782.81;;;9.08;100.00
18819;BME280;9537;45.594;9.294;2022-12-05T05:37:06;99788.91;;;9.08;100.00
18819;BME280;9537;45.594;9.294;2022-12-05T05:38:08;99780.19;;;9.08;100.00
18819;BME280;9537;45.594;9.294;2022-12-05T05:39:13;99782.63;;;9.09;100.00
18819;BME280;9537;45.594;9.294;2022-12-05T05:40:16;99782.63;;;9.09;100.00
18819;BME280;9537;45.594;9.294;2022-12-05T05:41:23;99784.44;;;9.09;100.00
18819;BME280;9537;45.594;9.294;2022-12-05T05:42:27;99788.06;;;9.08;100.00
18819;BME280;9537;45.594;9.294;2022-12-05T05:43:28;99787.25;;;9.07;100.00
18819;BME280;9537;45.594;9.294;2022-12-05T05:44:30;99788.22;;;9.06;100.00
18819;BME280;9537;45.594;9.294;2022-12-05T05:45:31;99786.41;;;9.07;100.00
18819;BME280;9537;45.594;9.294;2022-12-05T05:46:34;99793.34;;;9.08;100.00
18819;BME280;9537;45.594;9.294;2022-12-05T05:47:35;99789.91;;;9.07;100.00
18819;BME280;9537;45.594;9.294;2022-12-05T05:48:38;99786.41;;;9.07;100.00
18819;BME280;9537;45.594;9.294;2022-12-05T05:49:39;99787.25;;;9.07;100.00
18819;BME280;9537;45.594;9.294;2022-12-05T05:50:41;99791.53;;;9.08;100.00
18819;BME280;9537;45.594;9.294;2022-12-05T05:51:42;99792.34;;;9.09;100.00
18819;BME280;9537;45.594;9.294;2022-12-05T05:52:45;99788.91;;;9.08;100.00
18819;BME280;9537;45.594;9.294;2022-12-05T05:53:46;99788.72;;;9.10;100.00